Kemi-Tornio Airport


Codes: EFKE/KEM
Name: Kemi-Tornio Airport
City: Kemi / Tornio
Country: Finland
Elevation: 61 ft.
Wikipedia:

Photos at Kemi-Tornio Airport


   Photos courtesy of SpottingLog. You can add your own sightings and photos by signing up for a free trial today.



No photos found.

Weather at Kemi-Tornio Airport


Time (UTC)DescriptionTempratureWindCloud coverageVisibilityPressureHumidity
19-Apr-2024 03:00Clear Sky-7°C9 mph, E0%10000m1019hPa58%
19-Apr-2024 06:00Clear Sky-7°C9 mph, E4%10000m1020hPa67%
19-Apr-2024 09:00Clear Sky-6°C9 mph, E5%10000m1020hPa69%
19-Apr-2024 12:00Clear Sky-2°C9 mph, NE8%10000m1018hPa68%
19-Apr-2024 15:00Broken Clouds-2°C9 mph, NE53%10000m1017hPa76%
19-Apr-2024 18:00Broken Clouds-5°C7 mph, NE77%10000m1017hPa84%
19-Apr-2024 21:00Overcast Clouds-7°C9 mph, NE100%10000m1016hPa80%
20-Apr-2024 00:00Overcast Clouds-7°C11 mph, NE100%10000m1015hPa81%
20-Apr-2024 03:00Overcast Clouds-7°C13 mph, NE100%10000m1014hPa76%
20-Apr-2024 06:00Overcast Clouds-5°C13 mph, NE100%10000m1014hPa75%
20-Apr-2024 09:00Overcast Clouds-3°C13 mph, N100%10000m1015hPa75%
20-Apr-2024 12:00Overcast Clouds-2°C11 mph, N100%10000m1016hPa73%
20-Apr-2024 15:00Overcast Clouds-2°C11 mph, N100%10000m1018hPa75%
20-Apr-2024 18:00Overcast Clouds-4°C11 mph, NE100%10000m1021hPa80%
20-Apr-2024 21:00Overcast Clouds-5°C9 mph, NE100%10000m1024hPa83%
21-Apr-2024 00:00Overcast Clouds-7°C7 mph, N100%10000m1027hPa87%
21-Apr-2024 03:00Overcast Clouds-9°C7 mph, N95%10000m1030hPa92%
21-Apr-2024 06:00Overcast Clouds-5°C7 mph, NE91%10000m1032hPa83%
21-Apr-2024 09:00Overcast Clouds-2°C9 mph, NE99%10000m1034hPa70%
21-Apr-2024 12:00Overcast Clouds-0°C7 mph, NE98%10000m1035hPa68%
21-Apr-2024 15:00Overcast Clouds-0°C2 mph, NE94%10000m1036hPa82%
21-Apr-2024 18:00Overcast Clouds-5°C2 mph, E93%10000m1037hPa85%
21-Apr-2024 21:00Overcast Clouds-10°C4 mph, E96%10000m1038hPa93%
22-Apr-2024 00:00Overcast Clouds-10°C4 mph, E86%10000m1038hPa96%
22-Apr-2024 03:00Overcast Clouds-11°C4 mph, E97%10000m1037hPa94%
22-Apr-2024 06:00Broken Clouds-6°C7 mph, E56%10000m1036hPa86%
22-Apr-2024 09:00Scattered Clouds-3°C7 mph, E49%10000m1034hPa72%
22-Apr-2024 12:00Broken Clouds-1°C9 mph, E74%10000m1031hPa73%
22-Apr-2024 15:00Overcast Clouds-2°C7 mph, E100%10000m1030hPa80%
22-Apr-2024 18:00Overcast Clouds-6°C7 mph, NE98%10000m1028hPa88%
22-Apr-2024 21:00Few Clouds-10°C7 mph, NE17%10000m1027hPa91%
23-Apr-2024 00:00Few Clouds-10°C7 mph, NE14%10000m1025hPa92%
23-Apr-2024 03:00Scattered Clouds-9°C9 mph, NE35%10000m1022hPa91%
23-Apr-2024 06:00Broken Clouds-4°C11 mph, NE68%743m1020hPa93%
23-Apr-2024 09:00Light Snow-2°C11 mph, NE100%222m1018hPa95%
23-Apr-2024 12:00Light Snow-0°C9 mph, NE100%228m1016hPa98%
23-Apr-2024 15:00Light Snow-0°C11 mph, NE100%201m1015hPa98%
23-Apr-2024 18:00Snow-2°C11 mph, NE100%198m1014hPa97%
23-Apr-2024 21:00Light Snow-2°C9 mph, NE100%152m1013hPa97%
24-Apr-2024 00:00Light Snow-1°C9 mph, NE100%269m1013hPa97%